»·PEaware :: UAL1256 KLAX-KLAS

UAL1256 :: KLAX-KLAS

FLIGHT INFORMATION

Flight Status: Arrived
Operator:
United Airlines
More flights by this operator :: More flights under this callsign
Pilot: Justin Z. (25672)
Aircraft: AIRBUS A321
(A321)
More flights by this aircraft type
Origin: KLAX Los Angeles Intl
United States
Destination: KLAS McCarran Intl
United States
More flights between these airports :: More routes between these airports
Route: +ORCKA4 MISEN KEPEC6
File this flight plan on PilotEdge
Remarks:
Altitude:
(Current/Filed)
27,000ft
Speed:
(Current/Filed)
450kts
Departed: 22-Mar-20 02:05 PM
Arrived: 22-Mar-20 03:02 PM
Distance/Time
Traveled:
205nm/0:57
Distance/Time
To Go:
Arrived

Flight Plot

Page will automatically refresh every two minutes.

Flight plan parsing failed; only flown route is shown


Map Options




Map Legend


Flown Route
Filed Route
Departure Airport
Arrival Airport
Navaid (VOR, NDB)
Fix

Horizontal Profiles

Position Reports

Time Latitude Longitude Heading Altitude Ground
Speed
22-Mar-20 13:33 33.940335 -118.399871 49 117ft 0kts
22-Mar-20 13:34 33.940335 -118.399871 49 117ft 0kts
22-Mar-20 13:35 33.940335 -118.399871 49 117ft 0kts
22-Mar-20 13:36 33.940335 -118.399871 49 117ft 0kts
22-Mar-20 13:37 33.940335 -118.399871 49 117ft 0kts
22-Mar-20 13:38 33.940335 -118.399871 49 117ft 0kts
22-Mar-20 13:39 33.940335 -118.399871 49 117ft 0kts
22-Mar-20 13:40 33.940335 -118.399871 49 117ft 0kts
22-Mar-20 13:41 33.940335 -118.399871 49 117ft 0kts
22-Mar-20 13:42 33.940335 -118.399871 49 117ft 0kts
22-Mar-20 13:43 33.940335 -118.399871 49 117ft 0kts
22-Mar-20 13:44 33.940335 -118.399871 49 117ft 0kts
22-Mar-20 13:45 33.940335 -118.399871 49 117ft 0kts
22-Mar-20 13:46 33.940335 -118.399871 49 117ft 0kts
22-Mar-20 13:47 33.940335 -118.399871 49 117ft 0kts
22-Mar-20 13:48 33.940335 -118.399871 49 117ft 0kts
22-Mar-20 13:49 33.940335 -118.399871 49 117ft 0kts
22-Mar-20 13:50 33.940335 -118.399871 49 117ft 0kts
22-Mar-20 13:51 33.940335 -118.399871 49 117ft 0kts
22-Mar-20 13:52 33.940335 -118.399871 49 117ft 0kts
22-Mar-20 13:53 33.940335 -118.399871 49 117ft 0kts
22-Mar-20 13:54 33.940335 -118.399871 49 117ft 0kts
22-Mar-20 13:55 33.940335 -118.399871 49 117ft 0kts
22-Mar-20 13:56 33.940335 -118.399871 49 117ft 0kts
22-Mar-20 13:57 33.940339 -118.399865 49 117ft 0kts
22-Mar-20 13:58 33.940131 -118.400156 49 117ft 0kts
22-Mar-20 13:59 33.940131 -118.400156 49 117ft 0kts
22-Mar-20 14:00 33.940131 -118.400156 49 117ft 0kts
22-Mar-20 14:01 33.940131 -118.400156 49 117ft 0kts
22-Mar-20 14:02 33.940131 -118.400156 49 117ft 0kts
22-Mar-20 14:03 33.939405 -118.400507 194 118ft 9kts
22-Mar-20 14:04 33.939623 -118.391743 83 107ft 41kts
22-Mar-20 14:05 33.940424 -118.383734 104 101ft 0kts
22-Mar-20 14:06 33.940424 -118.383734 104 101ft 0kts
22-Mar-20 14:07 33.940424 -118.383734 104 101ft 0kts
22-Mar-20 14:08 33.940424 -118.383734 104 101ft 0kts
22-Mar-20 14:09 33.940410 -118.383658 102 101ft 0kts
22-Mar-20 14:10 33.939303 -118.385522 263 104ft 52kts
22-Mar-20 14:11 33.934208 -118.436108 262 1685ft 182kts
22-Mar-20 14:12 33.918477 -118.503733 247 3716ft 244kts
22-Mar-20 14:13 33.890481 -118.587382 247 5009ft 272kts
22-Mar-20 14:14 33.859866 -118.671749 228 5806ft 288kts
22-Mar-20 14:15 33.789740 -118.686891 152 9004ft 274kts
22-Mar-20 14:16 33.777206 -118.599368 53 10689ft 334kts
22-Mar-20 14:17 33.848970 -118.514316 42 11671ft 396kts
22-Mar-20 14:18 33.935404 -118.425128 37 13013ft 426kts
22-Mar-20 14:19 34.002866 -118.318810 62 13625ft 436kts
22-Mar-20 14:20 34.070411 -118.190246 54 16027ft 443kts
22-Mar-20 14:21 34.140262 -118.067122 54 17943ft 454kts
22-Mar-20 14:22 34.212579 -117.938966 54 19552ft 468kts
22-Mar-20 14:23 34.286692 -117.806640 54 21023ft 482kts
22-Mar-20 14:24 34.363060 -117.670538 52 22375ft 495kts
22-Mar-20 14:25 34.445463 -117.533612 51 23731ft 505kts
22-Mar-20 14:26 34.528762 -117.393823 51 24888ft 517kts
22-Mar-20 14:27 34.613922 -117.249665 52 25880ft 529kts
22-Mar-20 14:28 34.700376 -117.102903 52 26836ft 539kts
22-Mar-20 14:29 34.787702 -116.954337 53 27163ft 541kts
22-Mar-20 14:30 34.874861 -116.805147 53 27164ft 540kts
22-Mar-20 14:31 34.961361 -116.655141 55 27163ft 543kts
22-Mar-20 14:32 35.047574 -116.501744 56 26260ft 545kts
22-Mar-20 14:33 35.139526 -116.356837 48 23435ft 537kts
22-Mar-20 14:34 35.239385 -116.232723 49 21374ft 504kts
22-Mar-20 14:35 35.332955 -116.115265 50 19360ft 462kts
22-Mar-20 14:36 35.421093 -116.003800 49 17462ft 439kts
22-Mar-20 14:37 35.503275 -115.899669 49 15938ft 409kts
22-Mar-20 14:38 35.579138 -115.803234 49 14618ft 365kts
22-Mar-20 14:39 35.642473 -115.722448 49 13577ft 302kts
22-Mar-20 14:41 35.699861 -115.649097 48 13045ft 291kts
22-Mar-20 14:42 35.757765 -115.580670 27 13038ft 294kts
22-Mar-20 14:43 35.840023 -115.570983 2 13045ft 297kts
22-Mar-20 14:44 35.923036 -115.566601 3 13043ft 297kts
22-Mar-20 14:45 35.986960 -115.519156 72 12603ft 288kts
22-Mar-20 14:46 36.014940 -115.426360 70 11317ft 283kts
22-Mar-20 14:47 36.028565 -115.335775 97 10864ft 268kts
22-Mar-20 14:48 36.021587 -115.244740 96 9582ft 260kts
22-Mar-20 14:49 36.015367 -115.156781 95 8637ft 255kts
22-Mar-20 14:50 36.009673 -115.072608 94 7987ft 229kts
22-Mar-20 14:51 36.005026 -114.993483 94 8003ft 232kts
22-Mar-20 14:52 36.000259 -114.913913 94 7702ft 230kts
22-Mar-20 14:53 35.995417 -114.834546 93 6148ft 235kts
22-Mar-20 14:54 36.006744 -114.762273 28 5536ft 223kts
22-Mar-20 14:55 36.057768 -114.766783 342 5515ft 172kts
22-Mar-20 14:56 36.070494 -114.820026 277 5025ft 174kts
22-Mar-20 14:57 36.074883 -114.879487 261 5020ft 175kts
22-Mar-20 14:58 36.072069 -114.939631 272 5137ft 176kts
22-Mar-20 14:58 36.073345 -114.987687 269 4193ft 163kts
22-Mar-20 15:00 36.073540 -115.053059 271 3295ft 162kts
22-Mar-20 15:01 36.073540 -115.108373 271 2427ft 160kts
22-Mar-20 15:02 36.073630 -115.145707 269 2104ft 12kts
22-Mar-20 15:02 36.074424 -115.149914 299 2119ft 0kts
22-Mar-20 15:03 36.074424 -115.149914 298 2119ft 0kts
22-Mar-20 15:05 36.074424 -115.149914 298 2119ft 0kts
22-Mar-20 15:05 36.076600 -115.152059 344 2123ft 35kts
22-Mar-20 15:06 36.079439 -115.141155 29 2082ft 16kts
22-Mar-20 15:07 36.079957 -115.140392 55 2077ft 0kts

Navigation Log

Ident Type
Flight plan parsing failed, navigation log unavailable